createdAt,value
2022-11-15T00:01:38.390Z,97915.31
2022-11-15T00:04:12.894Z,97908.41
2022-11-15T00:06:40.338Z,97905.66
2022-11-15T00:09:08.108Z,97906.50
2022-11-15T00:11:36.041Z,97906.50
2022-11-15T00:14:05.734Z,97903.69
2022-11-15T00:16:36.207Z,97905.03
2022-11-15T00:19:06.636Z,97904.34
2022-11-15T00:21:33.874Z,97900.75
2022-11-15T00:24:01.498Z,97904.41
2022-11-15T00:26:28.783Z,97897.31
2022-11-15T00:28:56.363Z,97901.09
2022-11-15T00:31:25.035Z,97893.22
2022-11-15T00:33:52.625Z,97893.31
2022-11-15T00:36:20.014Z,97891.31
2022-11-15T00:38:47.412Z,97887.84
2022-11-15T00:41:17.477Z,97887.66
2022-11-15T00:43:45.582Z,97885.16
2022-11-15T00:46:13.226Z,97877.91
2022-11-15T00:48:40.473Z,97881.25
2022-11-15T00:51:07.828Z,97876.75
2022-11-15T00:53:35.111Z,97876.84
2022-11-15T00:56:03.077Z,97872.41
2022-11-15T00:58:30.188Z,97863.50
2022-11-15T01:00:58.060Z,97871.03
2022-11-15T01:03:25.212Z,97879.88
2022-11-15T01:05:52.391Z,97869.59
2022-11-15T01:08:19.712Z,97869.81
2022-11-15T01:10:47.310Z,97877.38
2022-11-15T01:13:14.442Z,97859.84
2022-11-15T01:15:42.636Z,97865.81
2022-11-15T01:18:10.240Z,97863.81
2022-11-15T01:20:46.373Z,97862.25
2022-11-15T01:23:13.473Z,97853.66
2022-11-15T01:25:40.961Z,97850.06
2022-11-15T01:28:08.449Z,97851.03
2022-11-15T01:30:37.666Z,97853.03
2022-11-15T01:33:04.950Z,97854.69
2022-11-15T01:35:32.310Z,97858.38
2022-11-15T01:37:59.499Z,97857.66
2022-11-15T01:40:26.523Z,97854.06
2022-11-15T01:42:53.728Z,97857.66
2022-11-15T01:45:20.887Z,97852.81
2022-11-15T01:47:54.128Z,97858.31
2022-11-15T01:50:31.925Z,97859.97
2022-11-15T01:53:02.330Z,97859.97
2022-11-15T01:55:29.719Z,97859.97
2022-11-15T01:58:01.512Z,97850.94
2022-11-15T02:00:29.994Z,97850.53
2022-11-15T02:02:57.691Z,97850.31
2022-11-15T02:05:25.201Z,97861.06
2022-11-15T02:07:52.975Z,97844.06
2022-11-15T02:10:23.319Z,97842.28
2022-11-15T02:12:51.850Z,97842.91
2022-11-15T02:15:19.349Z,97851.59
2022-11-15T02:17:52.489Z,97852.44
2022-11-15T02:20:31.645Z,97847.41
2022-11-15T02:23:37.030Z,97841.78
2022-11-15T02:26:26.170Z,97845.13
2022-11-15T02:29:05.371Z,97837.38
2022-11-15T02:31:38.285Z,97834.00
2022-11-15T02:34:20.901Z,97837.38
2022-11-15T02:37:05.261Z,97834.44
2022-11-15T02:40:17.013Z,97837.75
2022-11-15T02:43:13.157Z,97828.56
2022-11-15T02:45:52.589Z,97828.78
2022-11-15T02:48:26.821Z,97820.91
2022-11-15T02:50:54.235Z,97827.53
2022-11-15T02:53:26.517Z,97816.28
2022-11-15T02:55:56.405Z,97828.56
2022-11-15T02:58:37.622Z,97827.09
2022-11-15T03:01:22.436Z,97821.88
2022-11-15T03:04:08.140Z,97816.16
2022-11-15T03:06:54.369Z,97822.91
2022-11-15T03:09:41.797Z,97819.53
2022-11-15T03:12:21.464Z,97810.09
2022-11-15T03:15:02.661Z,97811.59
2022-11-15T03:17:40.025Z,97809.19
2022-11-15T03:20:09.422Z,97815.38
2022-11-15T03:22:42.388Z,97809.38
2022-11-15T03:25:15.680Z,97817.03
2022-11-15T03:27:49.174Z,97818.50
2022-11-15T03:30:17.251Z,97815.66
2022-11-15T03:32:49.119Z,97818.19
2022-11-15T03:35:22.213Z,97811.78
2022-11-15T03:38:21.603Z,97809.94
2022-11-15T03:41:05.243Z,97808.84
2022-11-15T03:43:48.139Z,97799.22
2022-11-15T03:46:42.401Z,97794.00
2022-11-15T03:49:25.954Z,97797.13
2022-11-15T03:51:53.527Z,97791.03
2022-11-15T03:54:20.692Z,97792.00
2022-11-15T03:56:48.090Z,97781.59
2022-11-15T03:59:15.134Z,97783.50
2022-11-15T04:01:42.307Z,97785.19
2022-11-15T04:04:09.520Z,97793.75
2022-11-15T04:06:39.038Z,97784.13
2022-11-15T04:09:06.237Z,97784.44
2022-11-15T04:11:33.689Z,97786.84
2022-11-15T04:14:01.128Z,97785.38
2022-11-15T04:16:28.142Z,97787.06
2022-11-15T04:19:14.238Z,97783.50
2022-11-15T04:22:02.896Z,97778.28
2022-11-15T04:24:30.184Z,97779.09
2022-11-15T04:26:57.324Z,97780.16
2022-11-15T04:29:36.789Z,97772.50
2022-11-15T04:32:05.851Z,97780.66
2022-11-15T04:34:33.841Z,97771.88
2022-11-15T04:37:12.857Z,97776.16
2022-11-15T04:39:44.401Z,97772.16
2022-11-15T04:42:32.162Z,97771.53
2022-11-15T04:45:05.376Z,97772.41
2022-11-15T04:47:32.584Z,97774.63
2022-11-15T04:50:03.179Z,97758.38
2022-11-15T04:52:30.330Z,97765.06
2022-11-15T04:55:08.263Z,97760.56
2022-11-15T04:57:35.635Z,97767.25
2022-11-15T05:00:05.064Z,97766.31
2022-11-15T05:02:54.943Z,97764.13
2022-11-15T05:05:22.437Z,97763.94
2022-11-15T05:07:49.580Z,97766.75
2022-11-15T05:10:16.702Z,97763.94
2022-11-15T05:12:43.829Z,97756.50
2022-11-15T05:15:11.378Z,97761.09
2022-11-15T05:17:41.664Z,97769.59
2022-11-15T05:20:09.136Z,97768.88
2022-11-15T05:22:36.489Z,97774.00
2022-11-15T05:25:04.261Z,97774.94
2022-11-15T05:27:31.490Z,97771.69
2022-11-15T05:29:59.084Z,97768.66
2022-11-15T05:32:26.871Z,97771.19
2022-11-15T05:34:54.581Z,97766.25
2022-11-15T05:37:34.521Z,97768.25
2022-11-15T05:40:01.721Z,97766.78
2022-11-15T05:42:31.188Z,97771.81
2022-11-15T05:44:59.887Z,97775.16
2022-11-15T05:47:31.033Z,97776.81
2022-11-15T05:49:58.935Z,97776.81
2022-11-15T05:52:36.238Z,97778.72
2022-11-15T05:55:06.323Z,97778.72
2022-11-15T05:57:33.769Z,97776.09
2022-11-15T06:00:01.609Z,97784.69
2022-11-15T06:02:28.868Z,97784.25
2022-11-15T06:04:56.011Z,97785.72
2022-11-15T06:07:23.301Z,97788.34
2022-11-15T06:09:50.408Z,97790.97
2022-11-15T06:12:17.545Z,97789.09
2022-11-15T06:14:44.780Z,97790.03
2022-11-15T06:17:11.957Z,97789.16
2022-11-15T06:19:39.121Z,97785.72
2022-11-15T06:22:06.521Z,97796.00
2022-11-15T06:24:33.791Z,97792.94
2022-11-15T06:27:00.919Z,97787.91
2022-11-15T06:29:28.228Z,97779.31
2022-11-15T06:31:55.375Z,97785.09
2022-11-15T06:34:22.926Z,97785.59
2022-11-15T06:36:49.969Z,97784.44
2022-11-15T06:39:17.283Z,97788.50
2022-11-15T06:41:44.450Z,97788.31
2022-11-15T06:44:11.609Z,97790.22
2022-11-15T06:46:38.599Z,97787.88
2022-11-15T06:49:09.535Z,97783.34
2022-11-15T06:51:37.099Z,97779.06
2022-11-15T06:54:04.506Z,97778.78
2022-11-15T06:56:31.624Z,97783.91
2022-11-15T06:59:07.570Z,97778.78
2022-11-15T07:01:37.674Z,97783.19
2022-11-15T07:04:04.937Z,97771.13
2022-11-15T07:06:32.034Z,97770.50
2022-11-15T07:08:59.277Z,97768.09
2022-11-15T07:11:26.417Z,97775.75
2022-11-15T07:14:09.718Z,97778.91
2022-11-15T07:16:38.120Z,97767.13
2022-11-15T07:19:07.535Z,97770.25
2022-11-15T07:21:34.741Z,97770.09
2022-11-15T07:24:02.042Z,97763.06
2022-11-15T07:26:29.314Z,97772.78
2022-11-15T07:28:56.442Z,97768.66
2022-11-15T07:31:23.674Z,97767.72
2022-11-15T07:33:50.787Z,97753.06
2022-11-15T07:36:17.921Z,97750.16
2022-11-15T07:38:45.263Z,97752.03
2022-11-15T07:41:12.612Z,97761.88
2022-11-15T07:43:40.017Z,97756.94
2022-11-15T07:46:10.773Z,97758.28
2022-11-15T07:48:45.276Z,97759.25
2022-11-15T07:51:15.565Z,97748.44
2022-11-15T07:53:44.117Z,97746.84
2022-11-15T07:56:11.800Z,97749.25
2022-11-15T07:58:38.867Z,97743.47
2022-11-15T08:01:07.870Z,97745.13
2022-11-15T08:03:35.823Z,97753.00
2022-11-15T08:06:03.612Z,97745.06
2022-11-15T08:08:30.592Z,97748.16
2022-11-15T08:10:59.797Z,97746.91
2022-11-15T08:13:26.942Z,97748.66
2022-11-15T08:15:59.459Z,97748.16
2022-11-15T08:18:26.625Z,97741.53
2022-11-15T08:20:53.713Z,97740.72
2022-11-15T08:23:20.926Z,97742.56
2022-11-15T08:25:48.262Z,97737.63
2022-11-15T08:28:17.910Z,97740.72
2022-11-15T08:30:46.792Z,97729.06
2022-11-15T08:33:15.432Z,97732.09
2022-11-15T08:35:44.688Z,97730.09
2022-11-15T08:38:12.179Z,97724.44
2022-11-15T08:40:39.524Z,97722.44
2022-11-15T08:43:06.959Z,97721.78
2022-11-15T08:45:36.059Z,97706.31
2022-11-15T08:48:04.601Z,97711.31
2022-11-15T08:50:32.299Z,97701.53
2022-11-15T08:52:59.443Z,97696.88
2022-11-15T08:55:26.905Z,97688.91
2022-11-15T08:57:54.039Z,97692.44
2022-11-15T09:00:41.855Z,97685.66
2022-11-15T09:03:10.835Z,97683.13
2022-11-15T09:05:39.296Z,97678.59
2022-11-15T09:08:25.582Z,97673.34
2022-11-15T09:10:56.276Z,97667.41
2022-11-15T09:13:25.020Z,97663.47
2022-11-15T09:16:08.779Z,97659.06
2022-11-15T09:18:45.599Z,97660.75
2022-11-15T09:21:14.049Z,97656.00
2022-11-15T09:23:41.510Z,97651.78
2022-11-15T09:26:12.076Z,97646.19
2022-11-15T09:28:42.977Z,97642.13
2022-11-15T09:31:16.800Z,97635.00
2022-11-15T09:39:47.823Z,97635.03
2022-11-15T09:43:43.280Z,97622.50
2022-11-15T09:46:28.557Z,97619.00
2022-11-15T09:49:07.063Z,97615.53
2022-11-15T09:52:02.274Z,97600.16
2022-11-15T09:54:52.881Z,97615.44
2022-11-15T09:57:35.155Z,97611.63
2022-11-15T10:00:43.907Z,97600.66
2022-11-15T10:03:29.519Z,97586.91
2022-11-15T10:06:05.429Z,97592.50
2022-11-15T10:09:18.928Z,97590.25
2022-11-15T10:11:50.970Z,97582.25
2022-11-15T10:14:31.689Z,97583.94
2022-11-15T10:17:28.133Z,97572.69
2022-11-15T10:20:14.405Z,97572.69
2022-11-15T10:23:25.699Z,97572.69
2022-11-15T10:26:19.006Z,97568.13
2022-11-15T10:28:49.368Z,97552.34
2022-11-15T10:31:30.646Z,97550.31
2022-11-15T10:34:37.437Z,97544.03
2022-11-15T10:37:05.766Z,97540.78
2022-11-15T10:42:30.761Z,97537.53
2022-11-15T10:44:59.462Z,97525.19
2022-11-15T10:47:38.870Z,97536.53
2022-11-15T10:50:30.649Z,97531.94
2022-11-15T10:52:58.736Z,97534.31
2022-11-15T10:55:34.515Z,97524.00
2022-11-15T10:58:38.725Z,97524.31
2022-11-15T11:01:19.279Z,97522.97
2022-11-15T11:04:05.293Z,97527.72
2022-11-15T11:06:53.038Z,97524.19
2022-11-15T11:09:32.282Z,97519.38
2022-11-15T11:12:04.293Z,97522.09
2022-11-15T11:14:55.140Z,97523.00
2022-11-15T11:17:46.231Z,97523.88
2022-11-15T11:23:53.777Z,97511.19
2022-11-15T11:27:10.461Z,97503.72
2022-11-15T11:29:43.518Z,97511.38
2022-11-15T11:32:19.419Z,97499.72
2022-11-15T11:34:51.942Z,97493.91
2022-11-15T11:37:30.857Z,97501.75
2022-11-15T11:40:20.903Z,97502.03
2022-11-15T11:43:13.050Z,97498.81
2022-11-15T11:45:47.219Z,97501.19
2022-11-15T11:48:25.253Z,97495.94
2022-11-15T11:50:54.190Z,97496.50
2022-11-15T11:53:42.753Z,97482.09
2022-11-15T11:56:23.044Z,97486.66
2022-11-15T11:58:56.264Z,97482.59
2022-11-15T12:01:46.883Z,97469.66
2022-11-15T12:04:32.306Z,97469.78
2022-11-15T12:07:47.407Z,97466.75
2022-11-15T12:11:03.725Z,97471.31
2022-11-15T12:13:35.953Z,97463.88
2022-11-15T12:16:31.221Z,97459.75
2022-11-15T12:19:03.172Z,97452.22
2022-11-15T12:21:42.423Z,97446.81
2022-11-15T12:24:49.463Z,97441.44
2022-11-15T12:27:38.410Z,97438.13
2022-11-15T12:30:14.803Z,97435.09
2022-11-15T12:32:52.641Z,97425.53
2022-11-15T12:35:40.342Z,97431.78
2022-11-15T12:38:12.856Z,97429.66
2022-11-15T12:41:15.749Z,97429.16
2022-11-15T12:43:47.378Z,97414.44
2022-11-15T12:46:20.904Z,97415.06
2022-11-15T12:48:51.776Z,97417.56
2022-11-15T12:51:21.994Z,97414.25
2022-11-15T12:53:49.420Z,97403.72
2022-11-15T12:56:16.360Z,97403.72
2022-11-15T12:58:47.929Z,97398.72
2022-11-15T13:01:39.391Z,97399.09
2022-11-15T13:04:22.675Z,97392.75
2022-11-15T13:09:46.594Z,97390.22
2022-11-15T13:12:28.991Z,97387.59
2022-11-15T13:14:59.850Z,97395.66
2022-11-15T13:18:08.830Z,97382.38
2022-11-15T13:20:36.190Z,97371.53
2022-11-15T13:23:15.276Z,97380.97
2022-11-15T13:26:06.799Z,97375.97
2022-11-15T13:28:42.942Z,97366.88
2022-11-15T13:31:36.266Z,97365.75
2022-11-15T13:34:50.436Z,97358.78
2022-11-15T13:37:23.082Z,97363.81
2022-11-15T13:39:53.935Z,97355.75
2022-11-15T13:42:23.266Z,97357.84
2022-11-15T13:45:03.823Z,97342.47
2022-11-15T13:47:32.940Z,97354.09
2022-11-15T13:50:02.263Z,97352.28
2022-11-15T13:52:35.159Z,97348.16
2022-11-15T13:55:17.291Z,97343.56
2022-11-15T13:57:55.439Z,97343.84
2022-11-15T14:00:37.517Z,97343.84
2022-11-15T14:03:37.233Z,97346.47
2022-11-15T14:06:08.251Z,97340.75
2022-11-15T14:08:36.622Z,97343.97
2022-11-15T14:11:14.490Z,97345.19
2022-11-15T14:13:42.553Z,97341.19
2022-11-15T14:16:36.851Z,97336.19
2022-11-15T14:19:06.316Z,97338.63
2022-11-15T14:21:34.087Z,97345.41
2022-11-15T14:24:37.880Z,97339.56
2022-11-15T14:27:28.558Z,97343.69
2022-11-15T14:29:56.907Z,97353.91
2022-11-15T14:32:25.428Z,97353.28
2022-11-15T14:35:03.031Z,97344.84
2022-11-15T14:37:38.785Z,97340.56
2022-11-15T14:40:10.851Z,97346.28
2022-11-15T14:42:53.278Z,97341.16
2022-11-15T14:45:23.384Z,97345.41
2022-11-15T14:47:57.281Z,97335.41
2022-11-15T14:50:24.505Z,97338.81
2022-11-15T14:52:54.998Z,97331.78
2022-11-15T14:55:33.052Z,97343.09
2022-11-15T14:58:00.495Z,97332.13
2022-11-15T15:00:39.081Z,97331.19
2022-11-15T15:03:29.614Z,97340.00
2022-11-15T15:05:57.723Z,97343.44
2022-11-15T15:08:24.939Z,97335.47
2022-11-15T15:10:52.117Z,97330.88
2022-11-15T15:13:25.209Z,97332.53
2022-11-15T15:15:53.703Z,97331.84
2022-11-15T15:22:46.291Z,97330.44
2022-11-15T15:25:28.660Z,97329.97
2022-11-15T15:27:56.666Z,97332.59
2022-11-15T15:30:26.833Z,97330.94
2022-11-15T15:33:01.040Z,97343.47
2022-11-15T15:35:33.147Z,97328.69
2022-11-15T15:38:00.911Z,97334.06
2022-11-15T15:40:30.430Z,97326.44
2022-11-15T15:42:58.272Z,97318.63
2022-11-15T15:45:28.701Z,97317.78
2022-11-15T15:47:56.419Z,97327.91
2022-11-15T15:50:26.732Z,97324.31
2022-11-15T15:52:59.735Z,97320.03
2022-11-15T15:55:27.816Z,97326.50
2022-11-15T15:57:55.209Z,97318.34
2022-11-15T16:00:24.961Z,97312.41
2022-11-15T16:02:53.331Z,97314.78
2022-11-15T16:05:21.740Z,97318.34
2022-11-15T16:07:49.809Z,97312.84
2022-11-15T16:10:22.413Z,97320.88
2022-11-15T16:12:49.950Z,97320.97
2022-11-15T16:15:17.282Z,97310.88
2022-11-15T16:17:56.697Z,97310.03
2022-11-15T16:20:46.625Z,97306.97
2022-11-15T16:23:16.935Z,97304.44
2022-11-15T16:25:57.066Z,97302.56
2022-11-15T16:28:29.741Z,97311.94
2022-11-15T16:31:10.606Z,97317.47
2022-11-15T16:33:38.917Z,97311.25
2022-11-15T16:36:16.164Z,97309.00
2022-11-15T16:38:49.957Z,97304.13
2022-11-15T16:41:20.282Z,97313.19
2022-11-15T16:43:54.059Z,97308.53
2022-11-15T16:46:27.322Z,97308.53
2022-11-15T16:48:55.579Z,97306.28
2022-11-15T16:51:23.807Z,97314.31
2022-11-15T16:53:51.578Z,97310.97
2022-11-15T16:56:30.655Z,97304.88
2022-11-15T16:58:59.181Z,97297.72
2022-11-15T17:01:28.781Z,97301.44
2022-11-15T17:03:58.897Z,97301.28
2022-11-15T17:06:27.251Z,97305.56
2022-11-15T17:08:55.281Z,97295.34
2022-11-15T17:11:23.317Z,97302.25
2022-11-15T17:13:50.643Z,97289.53
2022-11-15T17:16:18.903Z,97282.47
2022-11-15T17:18:50.957Z,97287.50
2022-11-15T17:21:19.864Z,97278.91
2022-11-15T17:23:47.491Z,97276.41
2022-11-15T17:26:35.043Z,97272.81
2022-11-15T17:29:08.254Z,97261.78
2022-11-15T17:31:37.042Z,97260.59
2022-11-15T17:34:06.401Z,97261.06
2022-11-15T17:36:35.248Z,97261.78
2022-11-15T17:39:03.395Z,97260.09
2022-11-15T17:41:30.780Z,97255.38
2022-11-15T17:44:00.239Z,97255.63
2022-11-15T17:46:28.755Z,97249.56
2022-11-15T17:48:57.460Z,97250.13
2022-11-15T17:51:25.098Z,97236.78
2022-11-15T17:53:53.395Z,97238.31
2022-11-15T17:56:24.854Z,97228.66
2022-11-15T17:58:54.578Z,97231.97
2022-11-15T18:01:24.151Z,97227.47
2022-11-15T18:03:52.314Z,97224.13
2022-11-15T18:06:21.517Z,97215.53
2022-11-15T18:08:51.555Z,97219.16
2022-11-15T18:11:40.819Z,97217.25
2022-11-15T18:14:14.713Z,97219.16
2022-11-15T18:16:42.886Z,97209.16
2022-11-15T18:19:14.182Z,97207.88
2022-11-15T18:21:58.379Z,97210.50
2022-11-15T18:24:30.575Z,97211.34
2022-11-15T18:26:59.089Z,97201.59
2022-11-15T18:29:29.694Z,97201.03
2022-11-15T18:31:57.545Z,97203.28
2022-11-15T18:34:27.295Z,97194.72
2022-11-15T18:36:54.931Z,97188.50
2022-11-15T18:39:22.368Z,97186.38
2022-11-15T18:41:50.083Z,97182.34
2022-11-15T18:44:36.460Z,97177.09
2022-11-15T18:47:03.943Z,97179.91
2022-11-15T18:49:31.219Z,97174.53
2022-11-15T18:51:58.602Z,97168.59
2022-11-15T18:54:30.938Z,97162.41
2022-11-15T18:56:58.648Z,97161.72
2022-11-15T18:59:32.446Z,97162.06
2022-11-15T19:02:03.674Z,97166.97
2022-11-15T19:04:31.162Z,97165.53
2022-11-15T19:06:58.938Z,97169.94
2022-11-15T19:09:33.106Z,97160.66
2022-11-15T19:12:02.320Z,97153.63
2022-11-15T19:14:30.040Z,97163.47
2022-11-15T19:16:57.949Z,97172.31
2022-11-15T19:19:26.487Z,97169.47
2022-11-15T19:21:57.812Z,97161.28
2022-11-15T19:24:26.886Z,97152.84
2022-11-15T19:26:57.969Z,97153.22
2022-11-15T19:29:25.258Z,97144.41
2022-11-15T19:31:52.758Z,97141.91
2022-11-15T19:34:20.298Z,97150.97
2022-11-15T19:36:47.851Z,97139.31
2022-11-15T19:39:18.244Z,97137.41
2022-11-15T19:41:46.879Z,97136.56
2022-11-15T19:44:14.631Z,97127.66
2022-11-15T19:46:42.702Z,97125.34
2022-11-15T19:49:11.487Z,97119.66
2022-11-15T19:51:41.962Z,97113.72
2022-11-15T19:54:10.896Z,97121.59
2022-11-15T19:56:40.311Z,97113.13
2022-11-15T19:59:07.926Z,97106.22
2022-11-15T20:01:38.248Z,97103.25
2022-11-15T20:04:06.738Z,97108.34
2022-11-15T20:06:37.072Z,97102.56
2022-11-15T20:09:04.838Z,97098.63
2022-11-15T20:11:32.448Z,97100.69
2022-11-15T20:14:02.587Z,97100.31
2022-11-15T20:16:29.886Z,97095.09
2022-11-15T20:18:57.371Z,97090.56
2022-11-15T20:21:25.179Z,97091.53
2022-11-15T20:23:52.744Z,97082.59
2022-11-15T20:26:21.190Z,97082.72
2022-11-15T20:28:49.084Z,97078.56
2022-11-15T20:31:16.997Z,97076.75
2022-11-15T20:33:44.051Z,97076.06
2022-11-15T20:36:13.746Z,97074.41
2022-11-15T20:38:40.943Z,97071.81
2022-11-15T20:41:08.622Z,97063.69
2022-11-15T20:43:35.979Z,97059.63
2022-11-15T20:46:03.246Z,97047.50
2022-11-15T20:48:32.782Z,97052.97
2022-11-15T20:51:10.374Z,97057.16
2022-11-15T20:53:37.962Z,97052.75
2022-11-15T20:56:11.492Z,97057.38
2022-11-15T20:58:39.984Z,97057.03
2022-11-15T21:01:08.774Z,97059.19
2022-11-15T21:03:40.604Z,97066.81
2022-11-15T21:06:12.884Z,97070.84
2022-11-15T21:09:03.610Z,97068.69
2022-11-15T21:11:50.154Z,97076.28
2022-11-15T21:14:20.920Z,97078.91
2022-11-15T21:17:15.444Z,97074.63
2022-11-15T21:19:55.212Z,97066.19
2022-11-15T21:22:42.079Z,97062.63
2022-11-15T21:25:16.515Z,97064.16
2022-11-15T21:27:48.097Z,97064.88
2022-11-15T21:30:35.357Z,97062.00
2022-11-15T21:33:28.723Z,97055.34
2022-11-15T21:36:00.714Z,97055.34
2022-11-15T21:46:24.878Z,97043.50
2022-11-15T21:49:05.705Z,97032.78
2022-11-15T21:51:45.459Z,97031.59
2022-11-15T21:54:23.735Z,97019.97
2022-11-15T21:57:25.499Z,97012.13
2022-11-15T22:00:30.625Z,97012.72
2022-11-15T22:03:17.901Z,97014.03
2022-11-15T22:06:18.038Z,97010.72
2022-11-15T22:09:04.868Z,97009.75
2022-11-15T22:11:45.559Z,97010.81
2022-11-15T22:14:19.168Z,97000.50
2022-11-15T22:20:16.601Z,96988.38
2022-11-15T22:23:32.430Z,96990.63
2022-11-15T22:26:13.021Z,96996.69
2022-11-15T22:31:31.651Z,96991.44
2022-11-15T22:34:37.143Z,96995.03
2022-11-15T22:37:24.087Z,96991.69
2022-11-15T22:39:51.707Z,96990.03
2022-11-15T22:45:23.477Z,96983.72
2022-11-15T22:45:31.968Z,96985.50
2022-11-15T22:47:54.523Z,96981.81
2022-11-15T22:50:46.627Z,96982.41
2022-11-15T22:53:26.476Z,96961.47
2022-11-15T22:56:20.126Z,96972.66
2022-11-15T22:59:02.403Z,96978.59
2022-11-15T23:01:33.182Z,96966.13
2022-11-15T23:04:02.936Z,96971.38
2022-11-15T23:10:06.771Z,96965.94
2022-11-15T23:13:14.846Z,96966.75
2022-11-15T23:16:19.242Z,96959.28
2022-11-15T23:22:38.470Z,96957.72
2022-11-15T23:25:16.479Z,96956.53
2022-11-15T23:27:47.442Z,96960.44
2022-11-15T23:30:45.887Z,96955.81
2022-11-15T23:34:55.709Z,96957.22
2022-11-15T23:36:42.730Z,96960.56
2022-11-15T23:42:08.800Z,96951.03
2022-11-15T23:44:45.812Z,96955.31
2022-11-15T23:47:17.634Z,96948.66
2022-11-15T23:49:48.199Z,96948.19
2022-11-15T23:52:26.588Z,96942.75
2022-11-15T23:54:56.602Z,96940.13
2022-11-15T23:57:24.438Z,96929.41
